Weather at Dzaoudzi Pamandzi International Airport

Public forecast

Using degrees Celsius for public forecast. Weather courtesy of forecast.io.

Current aviation weather report (METAR) for Dzaoudzi Pamandzi International Airport

2024/07/22 23:00 (retrieved 29 minutes ago)

FMCZ 222300Z AUTO 23010KT CAVOK 25/20 Q1018 NOSIG

Aviation forecast (TAF) for Dzaoudzi Pamandzi International Airport

2024/07/22 18:07 (retrieved 5 hours ago)

TAF FMCZ 221700Z 2218/2318 19012KT 9999 FEW024